sensor_id;sensor_type;location;lat;lon;timestamp;P1;durP1;ratioP1;P2;durP2;ratioP2
5867;SDS011;2960;49.142;7.768;2022-11-04T00:00:05;9.63;;;3.90;;
5867;SDS011;2960;49.142;7.768;2022-11-04T00:02:33;10.00;;;4.27;;
5867;SDS011;2960;49.142;7.768;2022-11-04T00:05:01;10.03;;;4.43;;
5867;SDS011;2960;49.142;7.768;2022-11-04T00:07:28;9.70;;;4.03;;
5867;SDS011;2960;49.142;7.768;2022-11-04T00:10:13;9.90;;;3.97;;
5867;SDS011;2960;49.142;7.768;2022-11-04T00:12:40;10.00;;;4.23;;
5867;SDS011;2960;49.142;7.768;2022-11-04T00:15:06;10.50;;;3.90;;
5867;SDS011;2960;49.142;7.768;2022-11-04T00:18:06;9.70;;;4.10;;
5867;SDS011;2960;49.142;7.768;2022-11-04T00:20:34;9.60;;;3.87;;
5867;SDS011;2960;49.142;7.768;2022-11-04T00:23:19;10.00;;;4.20;;
5867;SDS011;2960;49.142;7.768;2022-11-04T00:26:03;9.63;;;4.10;;
5867;SDS011;2960;49.142;7.768;2022-11-04T00:28:48;10.50;;;4.40;;
5867;SDS011;2960;49.142;7.768;2022-11-04T00:31:17;10.03;;;4.37;;
5867;SDS011;2960;49.142;7.768;2022-11-04T00:34:01;9.97;;;3.97;;
5867;SDS011;2960;49.142;7.768;2022-11-04T00:36:30;10.73;;;4.20;;
5867;SDS011;2960;49.142;7.768;2022-11-04T00:38:57;10.70;;;4.23;;
5867;SDS011;2960;49.142;7.768;2022-11-04T00:41:24;9.83;;;4.00;;
5867;SDS011;2960;49.142;7.768;2022-11-04T00:43:55;9.47;;;3.70;;
5867;SDS011;2960;49.142;7.768;2022-11-04T00:46:27;9.60;;;4.03;;
5867;SDS011;2960;49.142;7.768;2022-11-04T00:48:56;10.67;;;4.10;;
5867;SDS011;2960;49.142;7.768;2022-11-04T00:51:23;10.00;;;4.07;;
5867;SDS011;2960;49.142;7.768;2022-11-04T00:53:54;9.60;;;4.10;;
5867;SDS011;2960;49.142;7.768;2022-11-04T00:56:22;9.53;;;3.80;;
5867;SDS011;2960;49.142;7.768;2022-11-04T00:58:49;9.63;;;4.20;;
5867;SDS011;2960;49.142;7.768;2022-11-04T01:01:17;9.80;;;4.20;;
5867;SDS011;2960;49.142;7.768;2022-11-04T01:03:44;11.50;;;4.50;;
5867;SDS011;2960;49.142;7.768;2022-11-04T01:06:13;9.93;;;4.43;;
5867;SDS011;2960;49.142;7.768;2022-11-04T01:08:41;10.77;;;4.00;;
5867;SDS011;2960;49.142;7.768;2022-11-04T01:11:09;10.60;;;4.10;;
5867;SDS011;2960;49.142;7.768;2022-11-04T01:13:37;9.77;;;3.93;;
5867;SDS011;2960;49.142;7.768;2022-11-04T01:16:07;9.50;;;4.00;;
5867;SDS011;2960;49.142;7.768;2022-11-04T01:18:36;10.20;;;4.20;;
5867;SDS011;2960;49.142;7.768;2022-11-04T01:21:04;9.57;;;3.97;;
5867;SDS011;2960;49.142;7.768;2022-11-04T01:23:33;10.37;;;4.10;;
5867;SDS011;2960;49.142;7.768;2022-11-04T01:26:00;9.70;;;3.87;;
5867;SDS011;2960;49.142;7.768;2022-11-04T01:28:32;9.93;;;4.23;;
5867;SDS011;2960;49.142;7.768;2022-11-04T01:31:03;10.10;;;3.97;;
5867;SDS011;2960;49.142;7.768;2022-11-04T01:33:31;9.90;;;4.00;;
5867;SDS011;2960;49.142;7.768;2022-11-04T01:35:58;9.30;;;3.80;;
5867;SDS011;2960;49.142;7.768;2022-11-04T01:38:26;9.67;;;4.20;;
5867;SDS011;2960;49.142;7.768;2022-11-04T01:40:53;9.90;;;4.20;;
5867;SDS011;2960;49.142;7.768;2022-11-04T01:43:21;9.63;;;4.00;;
5867;SDS011;2960;49.142;7.768;2022-11-04T01:45:51;9.80;;;4.10;;
5867;SDS011;2960;49.142;7.768;2022-11-04T01:48:23;10.00;;;3.90;;
5867;SDS011;2960;49.142;7.768;2022-11-04T01:50:52;14.33;;;4.10;;
5867;SDS011;2960;49.142;7.768;2022-11-04T01:53:21;9.83;;;4.10;;
5867;SDS011;2960;49.142;7.768;2022-11-04T01:55:56;9.93;;;3.80;;
5867;SDS011;2960;49.142;7.768;2022-11-04T01:58:26;9.80;;;4.10;;
5867;SDS011;2960;49.142;7.768;2022-11-04T02:01:01;9.80;;;4.00;;
5867;SDS011;2960;49.142;7.768;2022-11-04T02:03:28;9.67;;;4.07;;
5867;SDS011;2960;49.142;7.768;2022-11-04T02:06:00;10.43;;;4.10;;
5867;SDS011;2960;49.142;7.768;2022-11-04T02:08:28;10.50;;;4.40;;
5867;SDS011;2960;49.142;7.768;2022-11-04T02:10:57;10.20;;;4.50;;
5867;SDS011;2960;49.142;7.768;2022-11-04T02:13:26;15.63;;;4.47;;
5867;SDS011;2960;49.142;7.768;2022-11-04T02:15:55;9.80;;;4.37;;
5867;SDS011;2960;49.142;7.768;2022-11-04T02:18:35;10.73;;;4.07;;
5867;SDS011;2960;49.142;7.768;2022-11-04T02:21:32;11.63;;;4.50;;
5867;SDS011;2960;49.142;7.768;2022-11-04T02:24:42;10.03;;;4.53;;
5867;SDS011;2960;49.142;7.768;2022-11-04T02:27:42;10.00;;;3.80;;
5867;SDS011;2960;49.142;7.768;2022-11-04T02:30:29;11.03;;;4.80;;
5867;SDS011;2960;49.142;7.768;2022-11-04T02:33:13;11.40;;;4.43;;
5867;SDS011;2960;49.142;7.768;2022-11-04T02:35:49;9.40;;;4.00;;
5867;SDS011;2960;49.142;7.768;2022-11-04T02:38:28;12.50;;;4.60;;
5867;SDS011;2960;49.142;7.768;2022-11-04T02:41:03;10.67;;;4.07;;
5867;SDS011;2960;49.142;7.768;2022-11-04T02:43:45;10.20;;;4.00;;
5867;SDS011;2960;49.142;7.768;2022-11-04T02:46:20;9.70;;;4.30;;
5867;SDS011;2960;49.142;7.768;2022-11-04T02:48:54;9.67;;;4.10;;
5867;SDS011;2960;49.142;7.768;2022-11-04T02:51:27;9.70;;;3.90;;
5867;SDS011;2960;49.142;7.768;2022-11-04T02:53:59;10.93;;;4.10;;
5867;SDS011;2960;49.142;7.768;2022-11-04T02:56:33;9.80;;;4.27;;
5867;SDS011;2960;49.142;7.768;2022-11-04T02:59:05;9.80;;;3.80;;
5867;SDS011;2960;49.142;7.768;2022-11-04T03:01:38;9.93;;;4.20;;
5867;SDS011;2960;49.142;7.768;2022-11-04T03:04:09;10.07;;;4.33;;
5867;SDS011;2960;49.142;7.768;2022-11-04T03:06:40;9.50;;;3.73;;
5867;SDS011;2960;49.142;7.768;2022-11-04T03:09:09;10.70;;;4.10;;
5867;SDS011;2960;49.142;7.768;2022-11-04T03:11:41;9.50;;;3.97;;
5867;SDS011;2960;49.142;7.768;2022-11-04T03:14:14;10.00;;;4.30;;
5867;SDS011;2960;49.142;7.768;2022-11-04T03:16:46;9.40;;;3.97;;
5867;SDS011;2960;49.142;7.768;2022-11-04T03:19:18;10.57;;;4.10;;
5867;SDS011;2960;49.142;7.768;2022-11-04T03:21:56;9.80;;;4.37;;
5867;SDS011;2960;49.142;7.768;2022-11-04T03:24:27;9.77;;;4.20;;
5867;SDS011;2960;49.142;7.768;2022-11-04T03:26:57;9.40;;;3.80;;
5867;SDS011;2960;49.142;7.768;2022-11-04T03:29:28;9.50;;;4.03;;
5867;SDS011;2960;49.142;7.768;2022-11-04T03:32:05;9.80;;;4.20;;
5867;SDS011;2960;49.142;7.768;2022-11-04T03:34:39;9.80;;;4.37;;
5867;SDS011;2960;49.142;7.768;2022-11-04T03:37:06;10.00;;;4.27;;
5867;SDS011;2960;49.142;7.768;2022-11-04T03:39:34;9.47;;;4.27;;
5867;SDS011;2960;49.142;7.768;2022-11-04T03:42:02;9.57;;;4.00;;
5867;SDS011;2960;49.142;7.768;2022-11-04T03:44:44;9.50;;;4.07;;
5867;SDS011;2960;49.142;7.768;2022-11-04T03:47:14;9.60;;;4.13;;
5867;SDS011;2960;49.142;7.768;2022-11-04T03:49:43;9.87;;;4.13;;
5867;SDS011;2960;49.142;7.768;2022-11-04T03:52:12;9.70;;;3.90;;
5867;SDS011;2960;49.142;7.768;2022-11-04T03:54:39;9.30;;;3.80;;
5867;SDS011;2960;49.142;7.768;2022-11-04T03:57:14;9.40;;;3.90;;
5867;SDS011;2960;49.142;7.768;2022-11-04T04:00:00;9.30;;;3.87;;
5867;SDS011;2960;49.142;7.768;2022-11-04T04:02:41;10.40;;;3.70;;
5867;SDS011;2960;49.142;7.768;2022-11-04T04:05:27;9.53;;;4.10;;
5867;SDS011;2960;49.142;7.768;2022-11-04T04:07:59;9.73;;;4.03;;
5867;SDS011;2960;49.142;7.768;2022-11-04T04:10:41;9.70;;;4.30;;
5867;SDS011;2960;49.142;7.768;2022-11-04T04:13:18;9.30;;;3.90;;
5867;SDS011;2960;49.142;7.768;2022-11-04T04:15:54;9.60;;;3.83;;
5867;SDS011;2960;49.142;7.768;2022-11-04T04:18:29;9.30;;;3.80;;
5867;SDS011;2960;49.142;7.768;2022-11-04T04:21:02;9.60;;;3.87;;
5867;SDS011;2960;49.142;7.768;2022-11-04T04:23:33;10.37;;;3.80;;
5867;SDS011;2960;49.142;7.768;2022-11-04T04:26:19;9.40;;;3.77;;
5867;SDS011;2960;49.142;7.768;2022-11-04T04:29:05;10.20;;;3.60;;
5867;SDS011;2960;49.142;7.768;2022-11-04T04:31:34;9.20;;;3.83;;
5867;SDS011;2960;49.142;7.768;2022-11-04T04:34:18;9.80;;;3.80;;
5867;SDS011;2960;49.142;7.768;2022-11-04T04:36:50;9.33;;;3.77;;
5867;SDS011;2960;49.142;7.768;2022-11-04T04:39:24;9.27;;;3.63;;
5867;SDS011;2960;49.142;7.768;2022-11-04T04:42:15;9.20;;;3.53;;
5867;SDS011;2960;49.142;7.768;2022-11-04T04:45:01;9.10;;;3.40;;
5867;SDS011;2960;49.142;7.768;2022-11-04T04:47:34;9.13;;;3.50;;
5867;SDS011;2960;49.142;7.768;2022-11-04T04:50:12;9.13;;;3.30;;
5867;SDS011;2960;49.142;7.768;2022-11-04T04:52:43;9.13;;;3.43;;
5867;SDS011;2960;49.142;7.768;2022-11-04T04:55:13;9.50;;;3.50;;
5867;SDS011;2960;49.142;7.768;2022-11-04T04:57:41;13.47;;;3.63;;
5867;SDS011;2960;49.142;7.768;2022-11-04T05:00:10;9.50;;;3.70;;
5867;SDS011;2960;49.142;7.768;2022-11-04T05:02:40;9.40;;;3.57;;
5867;SDS011;2960;49.142;7.768;2022-11-04T05:05:08;9.23;;;3.50;;
5867;SDS011;2960;49.142;7.768;2022-11-04T05:07:38;11.33;;;3.80;;
5867;SDS011;2960;49.142;7.768;2022-11-04T05:10:06;10.23;;;3.43;;
5867;SDS011;2960;49.142;7.768;2022-11-04T05:12:36;8.97;;;3.23;;
5867;SDS011;2960;49.142;7.768;2022-11-04T05:15:22;9.20;;;3.30;;
5867;SDS011;2960;49.142;7.768;2022-11-04T05:17:52;8.97;;;3.23;;
5867;SDS011;2960;49.142;7.768;2022-11-04T05:20:20;9.40;;;3.20;;
5867;SDS011;2960;49.142;7.768;2022-11-04T05:22:49;8.93;;;3.13;;
5867;SDS011;2960;49.142;7.768;2022-11-04T05:25:16;8.90;;;3.03;;
5867;SDS011;2960;49.142;7.768;2022-11-04T05:27:43;9.10;;;3.47;;
5867;SDS011;2960;49.142;7.768;2022-11-04T05:30:10;9.10;;;3.40;;
5867;SDS011;2960;49.142;7.768;2022-11-04T05:32:37;9.13;;;3.40;;
5867;SDS011;2960;49.142;7.768;2022-11-04T05:35:05;9.40;;;3.20;;
5867;SDS011;2960;49.142;7.768;2022-11-04T05:37:32;11.40;;;3.40;;
5867;SDS011;2960;49.142;7.768;2022-11-04T05:40:01;8.80;;;3.00;;
5867;SDS011;2960;49.142;7.768;2022-11-04T05:42:29;9.20;;;3.27;;
5867;SDS011;2960;49.142;7.768;2022-11-04T05:44:57;8.93;;;3.17;;
5867;SDS011;2960;49.142;7.768;2022-11-04T05:47:24;9.10;;;3.10;;
5867;SDS011;2960;49.142;7.768;2022-11-04T05:49:51;9.30;;;3.30;;
5867;SDS011;2960;49.142;7.768;2022-11-04T05:52:18;10.73;;;3.30;;
5867;SDS011;2960;49.142;7.768;2022-11-04T05:54:45;9.13;;;3.20;;
5867;SDS011;2960;49.142;7.768;2022-11-04T05:57:13;9.87;;;3.27;;
5867;SDS011;2960;49.142;7.768;2022-11-04T05:59:43;9.40;;;3.47;;
5867;SDS011;2960;49.142;7.768;2022-11-04T06:02:10;8.77;;;2.90;;
5867;SDS011;2960;49.142;7.768;2022-11-04T06:04:37;9.27;;;3.00;;
5867;SDS011;2960;49.142;7.768;2022-11-04T06:07:04;8.87;;;2.97;;
5867;SDS011;2960;49.142;7.768;2022-11-04T06:09:31;9.10;;;3.00;;
5867;SDS011;2960;49.142;7.768;2022-11-04T06:12:05;9.00;;;2.97;;
5867;SDS011;2960;49.142;7.768;2022-11-04T06:14:35;9.10;;;3.13;;
5867;SDS011;2960;49.142;7.768;2022-11-04T06:17:02;8.90;;;2.70;;
5867;SDS011;2960;49.142;7.768;2022-11-04T06:19:29;8.67;;;2.67;;
5867;SDS011;2960;49.142;7.768;2022-11-04T06:21:56;9.17;;;2.93;;
5867;SDS011;2960;49.142;7.768;2022-11-04T06:24:24;8.83;;;2.80;;
5867;SDS011;2960;49.142;7.768;2022-11-04T06:26:51;9.00;;;3.10;;
5867;SDS011;2960;49.142;7.768;2022-11-04T06:29:21;8.63;;;2.60;;
5867;SDS011;2960;49.142;7.768;2022-11-04T06:31:49;9.20;;;2.90;;
5867;SDS011;2960;49.142;7.768;2022-11-04T06:34:16;8.93;;;3.00;;
5867;SDS011;2960;49.142;7.768;2022-11-04T06:36:43;8.60;;;2.60;;
5867;SDS011;2960;49.142;7.768;2022-11-04T06:39:11;8.80;;;2.97;;
5867;SDS011;2960;49.142;7.768;2022-11-04T06:41:38;9.20;;;3.57;;
5867;SDS011;2960;49.142;7.768;2022-11-04T06:44:05;8.87;;;3.10;;
5867;SDS011;2960;49.142;7.768;2022-11-04T06:46:33;9.13;;;3.27;;
5867;SDS011;2960;49.142;7.768;2022-11-04T06:49:04;9.23;;;3.20;;
5867;SDS011;2960;49.142;7.768;2022-11-04T06:51:34;9.33;;;3.17;;
5867;SDS011;2960;49.142;7.768;2022-11-04T06:54:01;8.93;;;3.00;;
5867;SDS011;2960;49.142;7.768;2022-11-04T06:56:29;9.20;;;3.13;;
5867;SDS011;2960;49.142;7.768;2022-11-04T06:58:56;9.00;;;2.97;;
5867;SDS011;2960;49.142;7.768;2022-11-04T07:01:24;9.53;;;2.90;;
5867;SDS011;2960;49.142;7.768;2022-11-04T07:03:56;9.37;;;2.87;;
5867;SDS011;2960;49.142;7.768;2022-11-04T07:06:26;8.90;;;3.00;;
5867;SDS011;2960;49.142;7.768;2022-11-04T07:08:55;9.10;;;3.30;;
5867;SDS011;2960;49.142;7.768;2022-11-04T07:11:25;8.93;;;3.10;;
5867;SDS011;2960;49.142;7.768;2022-11-04T07:13:54;9.57;;;3.20;;
5867;SDS011;2960;49.142;7.768;2022-11-04T07:16:21;9.17;;;3.33;;
5867;SDS011;2960;49.142;7.768;2022-11-04T07:18:48;10.33;;;3.17;;
5867;SDS011;2960;49.142;7.768;2022-11-04T07:21:16;9.33;;;3.27;;
5867;SDS011;2960;49.142;7.768;2022-11-04T07:23:45;10.20;;;3.40;;
5867;SDS011;2960;49.142;7.768;2022-11-04T07:26:12;9.10;;;2.90;;
5867;SDS011;2960;49.142;7.768;2022-11-04T07:28:40;9.50;;;3.30;;
5867;SDS011;2960;49.142;7.768;2022-11-04T07:31:07;9.23;;;3.20;;
5867;SDS011;2960;49.142;7.768;2022-11-04T07:33:37;10.13;;;3.70;;
5867;SDS011;2960;49.142;7.768;2022-11-04T07:36:04;8.90;;;3.30;;
5867;SDS011;2960;49.142;7.768;2022-11-04T07:38:33;9.30;;;3.27;;
5867;SDS011;2960;49.142;7.768;2022-11-04T07:41:01;9.03;;;3.30;;
5867;SDS011;2960;49.142;7.768;2022-11-04T07:43:29;9.37;;;3.50;;
5867;SDS011;2960;49.142;7.768;2022-11-04T07:45:59;9.30;;;3.53;;
5867;SDS011;2960;49.142;7.768;2022-11-04T07:48:29;9.37;;;3.53;;
5867;SDS011;2960;49.142;7.768;2022-11-04T07:50:59;9.20;;;3.67;;
5867;SDS011;2960;49.142;7.768;2022-11-04T07:53:27;9.30;;;3.50;;
5867;SDS011;2960;49.142;7.768;2022-11-04T07:55:55;9.67;;;3.73;;
5867;SDS011;2960;49.142;7.768;2022-11-04T07:58:24;10.27;;;3.50;;
5867;SDS011;2960;49.142;7.768;2022-11-04T08:00:56;9.67;;;3.37;;
5867;SDS011;2960;49.142;7.768;2022-11-04T08:03:24;9.43;;;3.60;;
5867;SDS011;2960;49.142;7.768;2022-11-04T08:05:53;9.17;;;3.53;;
5867;SDS011;2960;49.142;7.768;2022-11-04T08:08:21;9.70;;;3.53;;
5867;SDS011;2960;49.142;7.768;2022-11-04T08:10:52;9.37;;;3.80;;
5867;SDS011;2960;49.142;7.768;2022-11-04T08:13:27;13.03;;;3.70;;
5867;SDS011;2960;49.142;7.768;2022-11-04T08:15:54;9.70;;;3.30;;
5867;SDS011;2960;49.142;7.768;2022-11-04T08:18:21;9.67;;;3.57;;
5867;SDS011;2960;49.142;7.768;2022-11-04T08:20:49;9.70;;;3.67;;
5867;SDS011;2960;49.142;7.768;2022-11-04T08:23:17;9.20;;;3.30;;
5867;SDS011;2960;49.142;7.768;2022-11-04T08:25:45;9.50;;;3.73;;
5867;SDS011;2960;49.142;7.768;2022-11-04T08:28:12;9.87;;;3.80;;
5867;SDS011;2960;49.142;7.768;2022-11-04T08:30:51;9.50;;;3.47;;
5867;SDS011;2960;49.142;7.768;2022-11-04T08:33:20;9.40;;;3.30;;
5867;SDS011;2960;49.142;7.768;2022-11-04T08:35:47;9.27;;;3.40;;
5867;SDS011;2960;49.142;7.768;2022-11-04T08:38:15;11.20;;;3.53;;
5867;SDS011;2960;49.142;7.768;2022-11-04T08:40:42;9.67;;;3.30;;
5867;SDS011;2960;49.142;7.768;2022-11-04T08:43:10;9.70;;;3.93;;
5867;SDS011;2960;49.142;7.768;2022-11-04T08:45:37;10.57;;;3.90;;
5867;SDS011;2960;49.142;7.768;2022-11-04T08:48:07;10.50;;;3.63;;
5867;SDS011;2960;49.142;7.768;2022-11-04T08:50:37;9.60;;;3.40;;
5867;SDS011;2960;49.142;7.768;2022-11-04T08:53:04;9.23;;;3.50;;
5867;SDS011;2960;49.142;7.768;2022-11-04T08:55:31;9.50;;;3.47;;
5867;SDS011;2960;49.142;7.768;2022-11-04T08:57:59;9.50;;;3.47;;
5867;SDS011;2960;49.142;7.768;2022-11-04T09:00:29;9.90;;;3.70;;
5867;SDS011;2960;49.142;7.768;2022-11-04T09:03:03;9.40;;;3.67;;
5867;SDS011;2960;49.142;7.768;2022-11-04T09:05:31;9.40;;;3.33;;
5867;SDS011;2960;49.142;7.768;2022-11-04T09:07:59;9.90;;;3.90;;
5867;SDS011;2960;49.142;7.768;2022-11-04T09:10:26;9.40;;;3.63;;
5867;SDS011;2960;49.142;7.768;2022-11-04T09:12:53;10.33;;;3.83;;
5867;SDS011;2960;49.142;7.768;2022-11-04T09:15:21;9.93;;;3.30;;
5867;SDS011;2960;49.142;7.768;2022-11-04T09:17:48;10.30;;;3.70;;
5867;SDS011;2960;49.142;7.768;2022-11-04T09:20:15;9.80;;;3.70;;
5867;SDS011;2960;49.142;7.768;2022-11-04T09:22:45;9.57;;;3.43;;
5867;SDS011;2960;49.142;7.768;2022-11-04T09:25:14;9.80;;;3.37;;
5867;SDS011;2960;49.142;7.768;2022-11-04T09:27:41;9.90;;;3.60;;
5867;SDS011;2960;49.142;7.768;2022-11-04T09:30:09;10.40;;;3.33;;
5867;SDS011;2960;49.142;7.768;2022-11-04T09:32:37;9.70;;;3.60;;
5867;SDS011;2960;49.142;7.768;2022-11-04T09:35:04;10.50;;;3.90;;
5867;SDS011;2960;49.142;7.768;2022-11-04T09:37:32;10.10;;;3.90;;
5867;SDS011;2960;49.142;7.768;2022-11-04T09:40:00;9.70;;;3.77;;
5867;SDS011;2960;49.142;7.768;2022-11-04T09:42:31;11.40;;;3.50;;
5867;SDS011;2960;49.142;7.768;2022-11-04T09:45:10;10.23;;;3.53;;
5867;SDS011;2960;49.142;7.768;2022-11-04T09:47:40;9.93;;;3.40;;
5867;SDS011;2960;49.142;7.768;2022-11-04T09:50:17;10.90;;;3.80;;
5867;SDS011;2960;49.142;7.768;2022-11-04T09:52:50;9.83;;;3.60;;
5867;SDS011;2960;49.142;7.768;2022-11-04T09:55:28;10.20;;;3.60;;
5867;SDS011;2960;49.142;7.768;2022-11-04T09:58:01;9.33;;;3.20;;
5867;SDS011;2960;49.142;7.768;2022-11-04T10:00:29;9.90;;;3.50;;
5867;SDS011;2960;49.142;7.768;2022-11-04T10:03:01;15.73;;;3.47;;
5867;SDS011;2960;49.142;7.768;2022-11-04T10:05:47;9.30;;;3.27;;
5867;SDS011;2960;49.142;7.768;2022-11-04T10:11:29;11.93;;;4.00;;
5867;SDS011;2960;49.142;7.768;2022-11-04T10:14:10;9.80;;;3.87;;
5867;SDS011;2960;49.142;7.768;2022-11-04T10:16:59;10.33;;;3.93;;
5867;SDS011;2960;49.142;7.768;2022-11-04T10:19:48;10.60;;;3.60;;
5867;SDS011;2960;49.142;7.768;2022-11-04T10:22:26;9.60;;;3.97;;
5867;SDS011;2960;49.142;7.768;2022-11-04T10:25:06;9.47;;;3.70;;
5867;SDS011;2960;49.142;7.768;2022-11-04T10:27:43;9.50;;;3.53;;
5867;SDS011;2960;49.142;7.768;2022-11-04T10:30:16;10.20;;;3.80;;
5867;SDS011;2960;49.142;7.768;2022-11-04T10:32:51;9.40;;;3.40;;
5867;SDS011;2960;49.142;7.768;2022-11-04T10:35:29;9.93;;;3.90;;
5867;SDS011;2960;49.142;7.768;2022-11-04T10:38:07;9.90;;;4.17;;
5867;SDS011;2960;49.142;7.768;2022-11-04T10:40:45;9.60;;;3.87;;
5867;SDS011;2960;49.142;7.768;2022-11-04T10:43:16;9.57;;;3.80;;
5867;SDS011;2960;49.142;7.768;2022-11-04T10:45:54;9.70;;;3.93;;
5867;SDS011;2960;49.142;7.768;2022-11-04T10:48:47;9.80;;;3.93;;
5867;SDS011;2960;49.142;7.768;2022-11-04T10:51:17;10.20;;;4.27;;
5867;SDS011;2960;49.142;7.768;2022-11-04T10:53:46;10.77;;;3.50;;
5867;SDS011;2960;49.142;7.768;2022-11-04T10:56:16;9.90;;;4.00;;
5867;SDS011;2960;49.142;7.768;2022-11-04T10:58:51;9.70;;;3.70;;
5867;SDS011;2960;49.142;7.768;2022-11-04T11:01:27;9.70;;;3.60;;
5867;SDS011;2960;49.142;7.768;2022-11-04T11:03:56;9.73;;;3.90;;
5867;SDS011;2960;49.142;7.768;2022-11-04T11:06:32;10.13;;;4.10;;
5867;SDS011;2960;49.142;7.768;2022-11-04T11:09:12;10.00;;;3.80;;
5867;SDS011;2960;49.142;7.768;2022-11-04T11:11:54;9.50;;;3.70;;
5867;SDS011;2960;49.142;7.768;2022-11-04T11:14:32;10.00;;;4.23;;
5867;SDS011;2960;49.142;7.768;2022-11-04T11:17:21;9.70;;;3.90;;
5867;SDS011;2960;49.142;7.768;2022-11-04T11:19:54;9.60;;;3.87;;
5867;SDS011;2960;49.142;7.768;2022-11-04T11:22:31;9.80;;;3.87;;
5867;SDS011;2960;49.142;7.768;2022-11-04T11:25:13;9.80;;;4.07;;
5867;SDS011;2960;49.142;7.768;2022-11-04T11:27:53;10.10;;;3.93;;
5867;SDS011;2960;49.142;7.768;2022-11-04T11:30:30;9.47;;;3.53;;
5867;SDS011;2960;49.142;7.768;2022-11-04T11:33:02;9.87;;;4.00;;
5867;SDS011;2960;49.142;7.768;2022-11-04T11:35:33;9.83;;;4.07;;
5867;SDS011;2960;49.142;7.768;2022-11-04T11:38:12;9.50;;;3.50;;
5867;SDS011;2960;49.142;7.768;2022-11-04T11:40:44;10.00;;;3.70;;
5867;SDS011;2960;49.142;7.768;2022-11-04T11:43:19;9.70;;;4.00;;
5867;SDS011;2960;49.142;7.768;2022-11-04T11:45:52;10.30;;;4.20;;
5867;SDS011;2960;49.142;7.768;2022-11-04T11:48:28;10.40;;;4.20;;
5867;SDS011;2960;49.142;7.768;2022-11-04T11:51:04;10.37;;;4.00;;
5867;SDS011;2960;49.142;7.768;2022-11-04T11:53:32;10.13;;;4.30;;
5867;SDS011;2960;49.142;7.768;2022-11-04T11:56:06;10.30;;;3.93;;
5867;SDS011;2960;49.142;7.768;2022-11-04T11:58:45;9.80;;;4.00;;
5867;SDS011;2960;49.142;7.768;2022-11-04T12:01:22;9.60;;;3.80;;
5867;SDS011;2960;49.142;7.768;2022-11-04T12:03:55;9.90;;;3.93;;
5867;SDS011;2960;49.142;7.768;2022-11-04T12:06:26;9.90;;;3.97;;
5867;SDS011;2960;49.142;7.768;2022-11-04T12:09:06;10.30;;;4.13;;
5867;SDS011;2960;49.142;7.768;2022-11-04T12:11:50;10.20;;;4.23;;
5867;SDS011;2960;49.142;7.768;2022-11-04T12:14:30;10.07;;;3.87;;
5867;SDS011;2960;49.142;7.768;2022-11-04T12:17:15;10.70;;;4.10;;
5867;SDS011;2960;49.142;7.768;2022-11-04T12:19:56;10.40;;;4.10;;
5867;SDS011;2960;49.142;7.768;2022-11-04T12:22:33;10.27;;;4.10;;
5867;SDS011;2960;49.142;7.768;2022-11-04T12:25:09;10.10;;;4.07;;
5867;SDS011;2960;49.142;7.768;2022-11-04T12:27:45;9.53;;;3.63;;
5867;SDS011;2960;49.142;7.768;2022-11-04T12:30:23;10.00;;;3.83;;
5867;SDS011;2960;49.142;7.768;2022-11-04T12:32:56;9.87;;;4.07;;
5867;SDS011;2960;49.142;7.768;2022-11-04T12:35:45;9.83;;;3.57;;
5867;SDS011;2960;49.142;7.768;2022-11-04T12:38:44;10.10;;;3.87;;
5867;SDS011;2960;49.142;7.768;2022-11-04T12:41:27;10.00;;;4.03;;
5867;SDS011;2960;49.142;7.768;2022-11-04T12:44:04;12.13;;;4.00;;
5867;SDS011;2960;49.142;7.768;2022-11-04T12:46:42;10.50;;;4.30;;
5867;SDS011;2960;49.142;7.768;2022-11-04T12:52:27;10.70;;;4.30;;
5867;SDS011;2960;49.142;7.768;2022-11-04T12:55:18;10.30;;;4.10;;
5867;SDS011;2960;49.142;7.768;2022-11-04T12:58:02;10.00;;;4.23;;
5867;SDS011;2960;49.142;7.768;2022-11-04T13:00:47;10.00;;;4.00;;
5867;SDS011;2960;49.142;7.768;2022-11-04T13:03:23;9.70;;;3.70;;
5867;SDS011;2960;49.142;7.768;2022-11-04T13:05:59;10.70;;;3.90;;
5867;SDS011;2960;49.142;7.768;2022-11-04T13:08:31;10.63;;;4.10;;
5867;SDS011;2960;49.142;7.768;2022-11-04T13:11:07;11.30;;;4.20;;
5867;SDS011;2960;49.142;7.768;2022-11-04T13:13:48;10.77;;;4.00;;
5867;SDS011;2960;49.142;7.768;2022-11-04T13:16:23;9.90;;;3.80;;
5867;SDS011;2960;49.142;7.768;2022-11-04T13:18:51;10.10;;;3.87;;
5867;SDS011;2960;49.142;7.768;2022-11-04T13:21:20;9.60;;;3.50;;
5867;SDS011;2960;49.142;7.768;2022-11-04T13:23:53;9.50;;;3.20;;
5867;SDS011;2960;49.142;7.768;2022-11-04T13:26:28;9.90;;;3.77;;
5867;SDS011;2960;49.142;7.768;2022-11-04T13:28:58;10.07;;;3.67;;
5867;SDS011;2960;49.142;7.768;2022-11-04T13:31:33;10.03;;;3.33;;
5867;SDS011;2960;49.142;7.768;2022-11-04T13:34:15;9.70;;;3.30;;
5867;SDS011;2960;49.142;7.768;2022-11-04T13:37:00;9.63;;;3.40;;
5867;SDS011;2960;49.142;7.768;2022-11-04T13:39:38;10.33;;;3.67;;
5867;SDS011;2960;49.142;7.768;2022-11-04T13:42:23;9.70;;;3.60;;
5867;SDS011;2960;49.142;7.768;2022-11-04T13:45:08;9.93;;;3.63;;
5867;SDS011;2960;49.142;7.768;2022-11-04T13:47:42;9.53;;;3.37;;
5867;SDS011;2960;49.142;7.768;2022-11-04T13:50:27;9.50;;;3.60;;
5867;SDS011;2960;49.142;7.768;2022-11-04T13:53:01;10.27;;;3.80;;
5867;SDS011;2960;49.142;7.768;2022-11-04T13:55:30;9.80;;;3.53;;
5867;SDS011;2960;49.142;7.768;2022-11-04T13:58:00;9.70;;;3.30;;
5867;SDS011;2960;49.142;7.768;2022-11-04T14:00:29;9.80;;;3.50;;
5867;SDS011;2960;49.142;7.768;2022-11-04T14:02:57;9.90;;;3.70;;
5867;SDS011;2960;49.142;7.768;2022-11-04T14:08:30;11.00;;;3.87;;
5867;SDS011;2960;49.142;7.768;2022-11-04T14:11:08;9.40;;;3.30;;
5867;SDS011;2960;49.142;7.768;2022-11-04T14:13:59;9.90;;;3.77;;
5867;SDS011;2960;49.142;7.768;2022-11-04T14:16:36;9.90;;;3.70;;
5867;SDS011;2960;49.142;7.768;2022-11-04T14:22:28;9.53;;;3.60;;
5867;SDS011;2960;49.142;7.768;2022-11-04T14:25:17;10.40;;;4.03;;
5867;SDS011;2960;49.142;7.768;2022-11-04T14:27:52;9.63;;;3.47;;
5867;SDS011;2960;49.142;7.768;2022-11-04T14:30:31;9.90;;;3.77;;
5867;SDS011;2960;49.142;7.768;2022-11-04T14:33:17;9.67;;;3.97;;
5867;SDS011;2960;49.142;7.768;2022-11-04T14:35:54;9.87;;;3.77;;
5867;SDS011;2960;49.142;7.768;2022-11-04T14:38:25;9.60;;;3.60;;
5867;SDS011;2960;49.142;7.768;2022-11-04T14:41:13;9.80;;;3.50;;
5867;SDS011;2960;49.142;7.768;2022-11-04T14:43:46;9.87;;;3.80;;
5867;SDS011;2960;49.142;7.768;2022-11-04T14:46:18;9.97;;;3.90;;
5867;SDS011;2960;49.142;7.768;2022-11-04T14:48:49;10.93;;;4.30;;
5867;SDS011;2960;49.142;7.768;2022-11-04T14:51:21;12.90;;;3.93;;
5867;SDS011;2960;49.142;7.768;2022-11-04T14:53:53;9.77;;;3.70;;
5867;SDS011;2960;49.142;7.768;2022-11-04T14:56:29;9.77;;;3.70;;
5867;SDS011;2960;49.142;7.768;2022-11-04T14:58:57;9.97;;;3.60;;
5867;SDS011;2960;49.142;7.768;2022-11-04T15:01:27;9.67;;;3.80;;
5867;SDS011;2960;49.142;7.768;2022-11-04T15:04:02;9.67;;;3.80;;
5867;SDS011;2960;49.142;7.768;2022-11-04T15:06:31;9.70;;;3.70;;
5867;SDS011;2960;49.142;7.768;2022-11-04T15:08:59;9.90;;;3.70;;
5867;SDS011;2960;49.142;7.768;2022-11-04T15:11:27;9.60;;;3.40;;
5867;SDS011;2960;49.142;7.768;2022-11-04T15:14:14;9.80;;;4.00;;
5867;SDS011;2960;49.142;7.768;2022-11-04T15:16:46;9.87;;;3.80;;
5867;SDS011;2960;49.142;7.768;2022-11-04T15:19:17;10.20;;;3.77;;
5867;SDS011;2960;49.142;7.768;2022-11-04T15:21:52;9.53;;;3.70;;
5867;SDS011;2960;49.142;7.768;2022-11-04T15:24:19;9.60;;;3.40;;
5867;SDS011;2960;49.142;7.768;2022-11-04T15:26:52;9.77;;;3.47;;
5867;SDS011;2960;49.142;7.768;2022-11-04T15:29:23;9.50;;;3.63;;
5867;SDS011;2960;49.142;7.768;2022-11-04T15:31:52;9.57;;;3.80;;
5867;SDS011;2960;49.142;7.768;2022-11-04T15:34:22;9.70;;;3.60;;
5867;SDS011;2960;49.142;7.768;2022-11-04T15:36:50;9.43;;;3.50;;
5867;SDS011;2960;49.142;7.768;2022-11-04T15:39:22;9.50;;;3.43;;
5867;SDS011;2960;49.142;7.768;2022-11-04T15:41:56;9.90;;;3.50;;
5867;SDS011;2960;49.142;7.768;2022-11-04T15:44:44;9.70;;;3.47;;
5867;SDS011;2960;49.142;7.768;2022-11-04T15:47:21;12.20;;;3.73;;
5867;SDS011;2960;49.142;7.768;2022-11-04T15:49:51;9.63;;;3.23;;
5867;SDS011;2960;49.142;7.768;2022-11-04T15:52:20;9.37;;;3.33;;
5867;SDS011;2960;49.142;7.768;2022-11-04T15:54:50;9.33;;;3.30;;
5867;SDS011;2960;49.142;7.768;2022-11-04T15:57:21;9.40;;;3.30;;